createdAt,value
2023-05-22T00:01:39.242Z,17.25
2023-05-22T00:04:05.939Z,17.10
2023-05-22T00:06:34.118Z,17.01
2023-05-22T00:09:00.830Z,16.76
2023-05-22T00:11:27.498Z,16.84
2023-05-22T00:13:54.581Z,16.71
2023-05-22T00:16:21.230Z,16.67
2023-05-22T00:18:48.292Z,16.56
2023-05-22T00:21:14.874Z,16.62
2023-05-22T00:23:41.577Z,16.56
2023-05-22T00:26:08.494Z,16.56
2023-05-22T00:28:34.933Z,16.37
2023-05-22T00:31:01.461Z,16.26
2023-05-22T00:33:27.981Z,16.42
2023-05-22T00:35:54.556Z,16.35
2023-05-22T00:38:32.479Z,16.48
2023-05-22T00:41:03.961Z,16.48
2023-05-22T00:43:30.867Z,16.44
2023-05-22T00:45:57.921Z,16.30
2023-05-22T00:48:24.823Z,16.34
2023-05-22T00:50:53.725Z,16.17
2023-05-22T00:53:22.739Z,16.18
2023-05-22T00:55:49.583Z,16.21
2023-05-22T00:58:19.310Z,16.03
2023-05-22T01:00:46.710Z,16.01
2023-05-22T01:03:17.571Z,15.80
2023-05-22T01:05:45.196Z,15.83
2023-05-22T01:08:12.149Z,15.70
2023-05-22T01:10:40.245Z,15.66
2023-05-22T01:13:25.288Z,15.77
2023-05-22T01:16:39.723Z,15.82
2023-05-22T01:19:51.306Z,15.92
2023-05-22T01:22:25.165Z,15.91
2023-05-22T01:25:40.103Z,15.58
2023-05-22T01:28:25.488Z,15.53
2023-05-22T01:31:24.877Z,15.63
2023-05-22T01:33:55.001Z,15.40
2023-05-22T01:36:24.706Z,15.37
2023-05-22T01:38:52.751Z,15.33
2023-05-22T01:41:19.466Z,15.56
2023-05-22T01:43:46.556Z,15.46
2023-05-22T01:46:13.387Z,15.20
2023-05-22T01:48:39.860Z,15.42
2023-05-22T01:51:20.523Z,15.33
2023-05-22T01:54:10.412Z,15.33
2023-05-22T01:56:46.482Z,15.43
2023-05-22T01:59:56.475Z,15.56
2023-05-22T02:02:24.834Z,15.54
2023-05-22T02:05:00.693Z,15.59
2023-05-22T02:07:29.012Z,15.58
2023-05-22T02:09:56.834Z,15.50
2023-05-22T02:12:24.442Z,15.37
2023-05-22T02:14:51.691Z,15.50
2023-05-22T02:17:18.286Z,15.38
2023-05-22T02:19:45.249Z,15.07
2023-05-22T02:22:13.778Z,15.09
2023-05-22T02:24:42.934Z,14.99
2023-05-22T02:27:09.803Z,15.03
2023-05-22T02:29:36.939Z,15.16
2023-05-22T02:32:04.150Z,15.06
2023-05-22T02:34:31.752Z,14.99
2023-05-22T02:37:04.468Z,15.01
2023-05-22T02:39:30.970Z,15.08
2023-05-22T02:41:57.498Z,14.88
2023-05-22T02:44:24.000Z,14.88
2023-05-22T02:46:51.194Z,15.03
2023-05-22T02:49:17.697Z,14.99
2023-05-22T02:51:47.546Z,14.87
2023-05-22T02:54:15.683Z,15.04
2023-05-22T02:56:43.331Z,15.09
2023-05-22T02:59:10.185Z,15.16
2023-05-22T03:01:38.704Z,15.08
2023-05-22T03:04:06.778Z,15.07
2023-05-22T03:06:35.432Z,15.06
2023-05-22T03:09:03.951Z,15.11
2023-05-22T03:11:31.621Z,15.10
2023-05-22T03:13:58.134Z,15.02
2023-05-22T03:16:25.032Z,14.99
2023-05-22T03:18:52.193Z,15.02
2023-05-22T03:21:18.684Z,14.81
2023-05-22T03:23:47.034Z,14.70
2023-05-22T03:26:13.502Z,14.73
2023-05-22T03:28:39.966Z,14.79
2023-05-22T03:31:09.522Z,14.79
2023-05-22T03:33:36.037Z,14.83
2023-05-22T03:36:03.620Z,14.92
2023-05-22T03:38:30.381Z,14.80
2023-05-22T03:40:57.058Z,14.85
2023-05-22T03:43:23.510Z,14.71
2023-05-22T03:45:50.024Z,14.50
2023-05-22T03:48:16.658Z,14.49
2023-05-22T03:50:43.138Z,14.54
2023-05-22T03:53:09.691Z,14.43
2023-05-22T03:55:36.160Z,14.49
2023-05-22T03:58:03.067Z,14.30
2023-05-22T04:00:29.582Z,14.26
2023-05-22T04:02:58.746Z,14.19
2023-05-22T04:05:25.358Z,14.30
2023-05-22T04:07:52.049Z,14.61
2023-05-22T04:10:18.446Z,14.69
2023-05-22T04:12:44.943Z,14.65
2023-05-22T04:15:11.377Z,14.68
2023-05-22T04:17:42.447Z,14.80
2023-05-22T04:20:10.010Z,14.85
2023-05-22T04:22:36.728Z,14.77
2023-05-22T04:25:03.274Z,14.92
2023-05-22T04:27:30.160Z,14.96
2023-05-22T04:29:56.620Z,15.03
2023-05-22T04:32:23.659Z,14.86
2023-05-22T04:34:51.096Z,14.91
2023-05-22T04:37:18.514Z,15.05
2023-05-22T04:39:45.855Z,15.30
2023-05-22T04:42:15.921Z,15.47
2023-05-22T04:44:42.699Z,15.50
2023-05-22T04:47:14.567Z,15.40
2023-05-22T04:49:42.608Z,15.62
2023-05-22T04:52:11.649Z,15.39
2023-05-22T04:54:41.537Z,15.11
2023-05-22T04:57:07.993Z,15.23
2023-05-22T04:59:38.150Z,15.24
2023-05-22T05:02:06.001Z,15.43
2023-05-22T05:04:33.144Z,15.66
2023-05-22T05:06:59.684Z,15.57
2023-05-22T05:09:26.211Z,15.62
2023-05-22T05:11:53.274Z,15.68
2023-05-22T05:14:20.011Z,15.71
2023-05-22T05:16:46.914Z,15.84
2023-05-22T05:19:14.116Z,15.95
2023-05-22T05:21:40.704Z,16.00
2023-05-22T05:24:07.321Z,16.30
2023-05-22T05:26:33.769Z,16.45
2023-05-22T05:29:00.208Z,16.62
2023-05-22T05:31:26.835Z,16.61
2023-05-22T05:33:53.390Z,16.72
2023-05-22T05:36:20.022Z,17.02
2023-05-22T05:38:46.836Z,17.21
2023-05-22T05:41:13.258Z,17.18
2023-05-22T05:43:39.690Z,17.05
2023-05-22T05:46:06.808Z,16.80
2023-05-22T05:48:33.274Z,17.09
2023-05-22T05:50:59.732Z,17.70
2023-05-22T05:53:26.424Z,17.79
2023-05-22T05:55:52.953Z,17.95
2023-05-22T05:58:19.389Z,17.71
2023-05-22T06:00:45.914Z,18.11
2023-05-22T06:03:12.793Z,17.96
2023-05-22T06:05:39.945Z,17.89
2023-05-22T06:08:06.446Z,19.32
2023-05-22T06:10:32.967Z,18.42
2023-05-22T06:12:59.462Z,18.27
2023-05-22T06:15:26.069Z,19.16
2023-05-22T06:17:54.776Z,19.44
2023-05-22T06:20:22.128Z,19.02
2023-05-22T06:22:48.596Z,19.72
2023-05-22T06:25:15.263Z,18.97
2023-05-22T06:27:41.771Z,19.51
2023-05-22T06:30:09.264Z,19.88
2023-05-22T06:32:35.993Z,20.21
2023-05-22T06:35:03.206Z,20.34
2023-05-22T06:37:31.533Z,20.75
2023-05-22T06:39:58.037Z,19.91
2023-05-22T06:42:25.023Z,20.98
2023-05-22T06:44:51.714Z,20.64
2023-05-22T06:47:18.148Z,20.72
2023-05-22T06:49:44.630Z,20.49
2023-05-22T06:52:11.120Z,21.13
2023-05-22T06:54:37.679Z,21.80
2023-05-22T06:57:07.071Z,21.50
2023-05-22T06:59:34.322Z,21.31
2023-05-22T07:02:01.077Z,21.41
2023-05-22T07:04:27.663Z,20.91
2023-05-22T07:06:54.216Z,21.32
2023-05-22T07:09:20.697Z,21.75
2023-05-22T07:11:47.167Z,21.38
2023-05-22T07:14:13.762Z,21.67
2023-05-22T07:16:41.258Z,22.00
2023-05-22T07:19:12.073Z,22.13
2023-05-22T07:21:38.605Z,22.60
2023-05-22T07:24:10.563Z,22.65
2023-05-22T07:26:37.890Z,22.86
2023-05-22T07:29:04.537Z,22.85
2023-05-22T07:31:34.464Z,22.52
2023-05-22T07:34:01.087Z,23.18
2023-05-22T07:36:27.544Z,23.86
2023-05-22T07:38:54.215Z,25.24
2023-05-22T07:41:22.738Z,26.11
2023-05-22T07:43:49.411Z,26.54
2023-05-22T07:46:16.309Z,26.32
2023-05-22T07:48:43.785Z,26.86
2023-05-22T07:51:10.229Z,27.42
2023-05-22T07:53:36.731Z,27.09
2023-05-22T07:56:03.332Z,25.93
2023-05-22T07:58:29.931Z,27.62
2023-05-22T08:00:56.864Z,25.64
2023-05-22T08:03:24.344Z,25.60
2023-05-22T08:05:51.344Z,26.47
2023-05-22T08:08:17.885Z,27.15
2023-05-22T08:10:58.100Z,25.21
2023-05-22T08:13:29.339Z,26.14
2023-05-22T08:16:00.401Z,25.27
2023-05-22T08:18:29.450Z,26.06
2023-05-22T08:20:56.708Z,25.94
2023-05-22T08:23:23.350Z,26.32
2023-05-22T08:25:50.333Z,25.93
2023-05-22T08:28:17.259Z,26.18
2023-05-22T08:30:44.174Z,26.16
2023-05-22T08:33:14.894Z,26.91
2023-05-22T08:35:41.437Z,26.14
2023-05-22T08:38:08.419Z,26.14
2023-05-22T08:40:42.548Z,25.99
2023-05-22T08:43:11.142Z,26.80
2023-05-22T08:45:37.689Z,26.74
2023-05-22T08:48:06.350Z,26.31
2023-05-22T08:50:37.957Z,27.56
2023-05-22T08:53:08.243Z,27.15
2023-05-22T08:55:34.914Z,27.08
2023-05-22T08:58:02.519Z,27.68
2023-05-22T09:00:30.188Z,28.01
2023-05-22T09:02:57.726Z,27.78
2023-05-22T09:05:26.800Z,27.61
2023-05-22T09:07:56.596Z,28.64
2023-05-22T09:10:25.729Z,28.71
2023-05-22T09:13:07.776Z,28.55
2023-05-22T09:15:36.133Z,26.48
2023-05-22T09:18:03.939Z,28.61
2023-05-22T09:20:34.918Z,28.67
2023-05-22T09:23:02.546Z,29.05
2023-05-22T09:25:29.052Z,29.56
2023-05-22T09:27:59.405Z,28.65
2023-05-22T09:30:26.019Z,28.16
2023-05-22T09:32:53.135Z,28.84
2023-05-22T09:35:20.243Z,29.74
2023-05-22T09:37:49.744Z,29.49
2023-05-22T09:40:16.240Z,31.28
2023-05-22T09:42:46.007Z,30.01
2023-05-22T09:45:13.126Z,29.45
2023-05-22T09:47:40.465Z,29.91
2023-05-22T09:50:09.969Z,28.27
2023-05-22T09:52:37.727Z,29.45
2023-05-22T09:55:07.011Z,30.14
2023-05-22T09:57:43.614Z,29.71
2023-05-22T10:00:19.764Z,29.96
2023-05-22T10:02:49.040Z,28.37
2023-05-22T10:05:21.508Z,28.10
2023-05-22T10:07:53.663Z,28.82
2023-05-22T10:10:25.107Z,29.48
2023-05-22T10:13:03.776Z,29.80
2023-05-22T10:15:31.362Z,28.69
2023-05-22T10:18:01.604Z,30.12
2023-05-22T10:20:30.034Z,28.74
2023-05-22T10:22:57.053Z,30.84
2023-05-22T10:25:23.621Z,28.98
2023-05-22T10:27:53.687Z,29.16
2023-05-22T10:30:43.915Z,31.06
2023-05-22T10:33:21.099Z,28.68
2023-05-22T10:35:53.371Z,29.01
2023-05-22T10:38:22.866Z,28.80
2023-05-22T10:40:50.164Z,28.50
2023-05-22T10:43:16.804Z,29.81
2023-05-22T10:45:46.745Z,29.55
2023-05-22T10:48:13.505Z,28.47
2023-05-22T10:50:50.022Z,29.58
2023-05-22T10:53:28.156Z,30.27
2023-05-22T10:56:02.523Z,29.85
2023-05-22T10:58:31.295Z,28.40
2023-05-22T11:01:20.033Z,28.95
2023-05-22T11:03:58.486Z,28.25
2023-05-22T11:06:41.577Z,29.27
2023-05-22T11:09:30.922Z,29.26
2023-05-22T11:12:28.462Z,29.08
2023-05-22T11:15:06.876Z,28.63
2023-05-22T11:17:40.073Z,28.86
2023-05-22T11:20:22.485Z,27.40
2023-05-22T11:23:01.794Z,28.56
2023-05-22T11:25:30.149Z,28.60
2023-05-22T11:27:58.133Z,29.67
2023-05-22T11:30:28.773Z,27.49
2023-05-22T11:32:57.462Z,28.73
2023-05-22T11:35:24.232Z,30.29
2023-05-22T11:37:52.590Z,30.40
2023-05-22T11:40:21.600Z,30.72
2023-05-22T11:42:48.259Z,31.38
2023-05-22T11:45:14.992Z,29.34
2023-05-22T11:47:42.150Z,29.36
2023-05-22T11:50:09.903Z,30.45
2023-05-22T11:52:39.006Z,30.68
2023-05-22T11:55:06.714Z,28.29
2023-05-22T11:57:34.880Z,28.84
2023-05-22T12:00:02.392Z,29.03
2023-05-22T12:02:28.952Z,30.35
2023-05-22T12:04:56.524Z,29.39
2023-05-22T12:07:24.647Z,29.19
2023-05-22T12:09:51.269Z,29.15
2023-05-22T12:12:19.914Z,30.58
2023-05-22T12:14:48.977Z,30.99
2023-05-22T12:17:17.393Z,30.62
2023-05-22T12:19:45.166Z,30.12
2023-05-22T12:22:12.082Z,31.01
2023-05-22T12:24:48.315Z,30.73
2023-05-22T12:27:15.372Z,31.16
2023-05-22T12:29:43.033Z,30.22
2023-05-22T12:32:11.700Z,29.60
2023-05-22T12:34:50.358Z,32.07
2023-05-22T12:37:21.920Z,34.18
2023-05-22T12:40:03.454Z,32.55
2023-05-22T12:42:30.103Z,31.10
2023-05-22T12:44:58.193Z,31.04
2023-05-22T12:47:25.454Z,30.50
2023-05-22T12:49:52.449Z,28.93
2023-05-22T12:52:19.325Z,28.75
2023-05-22T12:54:46.172Z,29.03
2023-05-22T12:57:12.757Z,29.66
2023-05-22T12:59:39.289Z,28.35
2023-05-22T13:02:06.517Z,29.81
2023-05-22T13:04:34.178Z,28.84
2023-05-22T13:07:00.908Z,29.83
2023-05-22T13:09:27.478Z,29.05
2023-05-22T13:11:54.344Z,29.40
2023-05-22T13:14:21.325Z,28.59
2023-05-22T13:16:47.851Z,29.36
2023-05-22T13:19:14.357Z,28.90
2023-05-22T13:21:41.225Z,27.92
2023-05-22T13:24:08.683Z,27.51
2023-05-22T13:26:35.166Z,27.62
2023-05-22T13:29:01.696Z,26.96
2023-05-22T13:31:28.601Z,27.11
2023-05-22T13:33:55.187Z,27.38
2023-05-22T13:36:21.840Z,27.55
2023-05-22T13:38:48.335Z,28.75
2023-05-22T13:41:15.597Z,28.14
2023-05-22T13:43:44.815Z,28.31
2023-05-22T13:46:11.389Z,28.12
2023-05-22T13:48:37.930Z,27.73
2023-05-22T13:51:04.732Z,28.12
2023-05-22T13:53:31.266Z,28.02
2023-05-22T13:55:57.783Z,28.76
2023-05-22T13:58:24.262Z,28.65
2023-05-22T14:00:50.885Z,28.18
2023-05-22T14:03:18.447Z,28.16
2023-05-22T14:05:45.486Z,27.79
2023-05-22T14:08:12.729Z,27.84
2023-05-22T14:10:39.646Z,28.17
2023-05-22T14:13:06.391Z,27.80
2023-05-22T14:15:32.937Z,28.27
2023-05-22T14:17:59.642Z,27.96
2023-05-22T14:20:26.271Z,27.38
2023-05-22T14:22:57.589Z,26.97
2023-05-22T14:25:26.316Z,27.58
2023-05-22T14:27:53.236Z,26.66
2023-05-22T14:30:19.895Z,27.00
2023-05-22T14:32:47.018Z,27.47
2023-05-22T14:35:13.885Z,27.74
2023-05-22T14:37:40.454Z,28.25
2023-05-22T14:40:07.754Z,28.35
2023-05-22T14:42:35.017Z,28.23
2023-05-22T14:45:01.809Z,28.05
2023-05-22T14:47:28.291Z,27.79
2023-05-22T14:49:57.694Z,27.79
2023-05-22T14:52:29.619Z,27.50
2023-05-22T14:54:56.103Z,26.90
2023-05-22T14:57:22.737Z,27.46
2023-05-22T14:59:49.250Z,27.68
2023-05-22T15:02:15.836Z,27.64
2023-05-22T15:04:42.499Z,27.32
2023-05-22T15:07:08.961Z,27.74
2023-05-22T15:09:35.510Z,27.38
2023-05-22T15:12:02.108Z,27.47
2023-05-22T15:14:28.596Z,27.10
2023-05-22T15:16:55.208Z,27.10
2023-05-22T15:19:22.035Z,27.26
2023-05-22T15:21:48.579Z,27.56
2023-05-22T15:24:16.391Z,27.76
2023-05-22T15:26:42.897Z,27.41
2023-05-22T15:29:11.126Z,27.33
2023-05-22T15:31:38.239Z,27.36
2023-05-22T15:34:04.845Z,27.22
2023-05-22T15:36:32.928Z,27.23
2023-05-22T15:38:59.398Z,27.03
2023-05-22T15:41:26.697Z,27.35
2023-05-22T15:43:53.410Z,27.33
2023-05-22T15:46:20.029Z,27.05
2023-05-22T15:48:46.859Z,26.87
2023-05-22T15:51:13.303Z,27.23
2023-05-22T15:53:40.068Z,27.42
2023-05-22T15:56:07.106Z,27.29
2023-05-22T15:58:33.824Z,27.35
2023-05-22T16:01:00.389Z,27.20
2023-05-22T16:03:27.062Z,27.45
2023-05-22T16:05:53.835Z,27.54
2023-05-22T16:08:20.342Z,27.08
2023-05-22T16:10:47.248Z,27.01
2023-05-22T16:13:14.336Z,26.40
2023-05-22T16:15:43.418Z,26.43
2023-05-22T16:18:12.382Z,25.95
2023-05-22T16:20:39.154Z,25.60
2023-05-22T16:23:05.875Z,25.41
2023-05-22T16:25:32.468Z,25.37
2023-05-22T16:27:58.903Z,25.60
2023-05-22T16:30:25.401Z,25.25
2023-05-22T16:32:52.028Z,25.26
2023-05-22T16:35:19.828Z,25.15
2023-05-22T16:37:46.872Z,25.06
2023-05-22T16:40:13.463Z,24.81
2023-05-22T16:42:40.361Z,24.49
2023-05-22T16:45:07.478Z,24.19
2023-05-22T16:47:34.064Z,24.15
2023-05-22T16:50:00.992Z,24.35
2023-05-22T16:52:27.856Z,24.14
2023-05-22T16:54:54.465Z,23.81
2023-05-22T16:57:21.123Z,23.59
2023-05-22T16:59:47.808Z,23.68
2023-05-22T17:02:14.301Z,23.87
2023-05-22T17:04:41.108Z,23.56
2023-05-22T17:07:07.759Z,23.71
2023-05-22T17:09:34.390Z,23.50
2023-05-22T17:12:01.124Z,23.58
2023-05-22T17:14:27.589Z,23.53
2023-05-22T17:16:55.279Z,23.58
2023-05-22T17:19:21.799Z,23.55
2023-05-22T17:21:48.778Z,23.46
2023-05-22T17:24:15.508Z,23.42
2023-05-22T17:26:42.983Z,23.50
2023-05-22T17:29:11.005Z,23.42
2023-05-22T17:31:39.488Z,23.38
2023-05-22T17:34:06.366Z,23.48
2023-05-22T17:36:33.103Z,23.26
2023-05-22T17:38:59.609Z,23.23
2023-05-22T17:41:26.350Z,23.23
2023-05-22T17:43:55.169Z,23.04
2023-05-22T17:46:22.172Z,23.00
2023-05-22T17:48:48.709Z,23.11
2023-05-22T17:51:15.184Z,22.93
2023-05-22T17:53:42.244Z,22.84
2023-05-22T17:56:08.804Z,22.92
2023-05-22T17:58:35.396Z,22.87
2023-05-22T18:01:01.942Z,22.90
2023-05-22T18:03:28.542Z,23.00
2023-05-22T18:05:55.138Z,22.94
2023-05-22T18:08:21.724Z,23.02
2023-05-22T18:10:48.944Z,22.98
2023-05-22T18:13:15.508Z,22.65
2023-05-22T18:15:42.067Z,22.74
2023-05-22T18:18:10.648Z,22.67
2023-05-22T18:20:38.858Z,22.55
2023-05-22T18:23:05.699Z,22.72
2023-05-22T18:25:32.169Z,22.66
2023-05-22T18:27:58.816Z,22.80
2023-05-22T18:30:25.322Z,22.89
2023-05-22T18:32:51.938Z,22.90
2023-05-22T18:35:18.432Z,22.90
2023-05-22T18:37:45.107Z,22.86
2023-05-22T18:40:12.470Z,22.90
2023-05-22T18:42:39.158Z,22.71
2023-05-22T18:45:06.950Z,22.29
2023-05-22T18:47:33.804Z,21.97
2023-05-22T18:50:00.532Z,22.13
2023-05-22T18:52:27.052Z,22.40
2023-05-22T18:54:53.629Z,22.32
2023-05-22T18:57:20.141Z,22.12
2023-05-22T18:59:47.057Z,21.91
2023-05-22T19:02:16.773Z,21.98
2023-05-22T19:04:43.773Z,21.78
2023-05-22T19:07:10.683Z,21.71
2023-05-22T19:09:37.302Z,21.57
2023-05-22T19:12:03.903Z,21.50
2023-05-22T19:14:30.693Z,21.54
2023-05-22T19:17:00.354Z,21.60
2023-05-22T19:19:27.613Z,21.67
2023-05-22T19:21:54.552Z,21.71
2023-05-22T19:24:22.232Z,21.52
2023-05-22T19:26:49.143Z,21.58
2023-05-22T19:29:15.782Z,21.55
2023-05-22T19:31:42.427Z,21.38
2023-05-22T19:34:09.015Z,21.43
2023-05-22T19:36:36.180Z,21.44
2023-05-22T19:39:02.719Z,21.47
2023-05-22T19:41:29.242Z,21.41
2023-05-22T19:43:55.770Z,21.44
2023-05-22T19:46:22.308Z,21.44
2023-05-22T19:48:48.769Z,21.51
2023-05-22T19:51:16.089Z,21.54
2023-05-22T19:53:44.013Z,21.49
2023-05-22T19:56:16.312Z,21.46
2023-05-22T19:58:43.565Z,21.37
2023-05-22T20:01:10.358Z,21.04
2023-05-22T20:03:37.012Z,21.29
2023-05-22T20:06:03.811Z,21.22
2023-05-22T20:08:30.286Z,21.03
2023-05-22T20:10:56.821Z,21.01
2023-05-22T20:13:23.352Z,21.01
2023-05-22T20:15:51.447Z,20.59
2023-05-22T20:18:18.605Z,20.81
2023-05-22T20:20:45.350Z,20.53
2023-05-22T20:23:12.233Z,20.58
2023-05-22T20:25:39.270Z,20.55
2023-05-22T20:28:05.944Z,20.50
2023-05-22T20:30:32.705Z,20.69
2023-05-22T20:32:59.307Z,20.52
2023-05-22T20:35:26.507Z,20.09
2023-05-22T20:37:53.507Z,20.26
2023-05-22T20:40:20.199Z,20.13
2023-05-22T20:42:47.666Z,20.12
2023-05-22T20:45:16.073Z,20.17
2023-05-22T20:47:43.046Z,20.34
2023-05-22T20:50:09.924Z,19.84
2023-05-22T20:52:37.303Z,19.87
2023-05-22T20:55:04.704Z,19.39
2023-05-22T20:57:31.416Z,19.42
2023-05-22T20:59:58.440Z,19.24
2023-05-22T21:02:26.090Z,18.97
2023-05-22T21:04:52.777Z,19.35
2023-05-22T21:07:19.701Z,19.04
2023-05-22T21:09:46.231Z,19.01
2023-05-22T21:12:12.921Z,19.07
2023-05-22T21:14:40.281Z,18.99
2023-05-22T21:17:07.309Z,19.21
2023-05-22T21:19:34.067Z,18.95
2023-05-22T21:22:00.794Z,19.04
2023-05-22T21:24:27.525Z,18.82
2023-05-22T21:26:54.098Z,18.72
2023-05-22T21:29:24.124Z,18.78
2023-05-22T21:31:50.908Z,18.81
2023-05-22T21:34:17.489Z,19.03
2023-05-22T21:36:43.990Z,19.04
2023-05-22T21:39:11.002Z,18.74
2023-05-22T21:41:37.550Z,18.90
2023-05-22T21:44:05.047Z,18.83
2023-05-22T21:46:31.655Z,18.98
2023-05-22T21:48:58.243Z,18.69
2023-05-22T21:51:25.224Z,18.58
2023-05-22T21:53:51.853Z,18.63
2023-05-22T21:56:18.614Z,18.33
2023-05-22T21:58:45.135Z,18.40
2023-05-22T22:01:11.711Z,18.25
2023-05-22T22:03:41.260Z,18.38
2023-05-22T22:06:08.380Z,18.23
2023-05-22T22:08:34.881Z,18.09
2023-05-22T22:11:01.842Z,17.83
2023-05-22T22:13:28.385Z,18.17
2023-05-22T22:15:57.211Z,17.85
2023-05-22T22:18:23.764Z,18.11
2023-05-22T22:20:54.018Z,17.78
2023-05-22T22:23:21.855Z,18.14
2023-05-22T22:25:48.908Z,17.94
2023-05-22T22:28:15.869Z,17.87
2023-05-22T22:30:42.450Z,17.96
2023-05-22T22:33:09.038Z,17.67
2023-05-22T22:35:36.462Z,17.93
2023-05-22T22:38:03.154Z,17.95
2023-05-22T22:40:29.631Z,17.74
2023-05-22T22:42:56.260Z,17.51
2023-05-22T22:45:22.718Z,17.15
2023-05-22T22:47:49.218Z,17.21
2023-05-22T22:50:16.104Z,17.19
2023-05-22T22:52:45.685Z,17.00
2023-05-22T22:55:12.524Z,16.98
2023-05-22T22:57:39.383Z,17.16
2023-05-22T23:00:06.664Z,17.20
2023-05-22T23:02:33.212Z,17.25
2023-05-22T23:04:59.942Z,17.42
2023-05-22T23:07:28.136Z,17.34
2023-05-22T23:09:54.697Z,17.39
2023-05-22T23:12:21.234Z,17.42
2023-05-22T23:14:48.013Z,16.90
2023-05-22T23:17:14.459Z,16.86
2023-05-22T23:19:40.934Z,16.72
2023-05-22T23:22:07.704Z,16.47
2023-05-22T23:24:34.251Z,16.56
2023-05-22T23:27:01.549Z,16.31
2023-05-22T23:29:28.064Z,16.52
2023-05-22T23:31:55.927Z,16.65
2023-05-22T23:34:22.494Z,16.61
2023-05-22T23:36:49.141Z,16.50
2023-05-22T23:39:15.809Z,16.34
2023-05-22T23:41:43.745Z,16.21
2023-05-22T23:44:12.045Z,16.06
2023-05-22T23:46:39.787Z,16.22
2023-05-22T23:49:07.242Z,15.71
2023-05-22T23:51:33.670Z,16.37
2023-05-22T23:54:00.381Z,16.43
2023-05-22T23:56:26.893Z,16.48
2023-05-22T23:58:53.348Z,16.49
